sensor_id;sensor_type;location;lat;lon;timestamp;P1;durP1;ratioP1;P2;durP2;ratioP2
78783;SDS011;68127;51.050;14.084;2023-07-16T00:00:22;6.90;;;3.22;;
78783;SDS011;68127;51.050;14.084;2023-07-16T00:02:47;4.78;;;3.03;;
78783;SDS011;68127;51.050;14.084;2023-07-16T00:05:12;7.63;;;3.00;;
78783;SDS011;68127;51.050;14.084;2023-07-16T00:07:37;7.22;;;2.92;;
78783;SDS011;68127;51.050;14.084;2023-07-16T00:10:03;5.97;;;3.25;;
78783;SDS011;68127;51.050;14.084;2023-07-16T00:12:28;8.57;;;3.08;;
78783;SDS011;68127;51.050;14.084;2023-07-16T00:14:53;9.85;;;3.17;;
78783;SDS011;68127;51.050;14.084;2023-07-16T00:17:20;7.00;;;3.40;;
78783;SDS011;68127;51.050;14.084;2023-07-16T00:19:45;7.43;;;3.20;;
78783;SDS011;68127;51.050;14.084;2023-07-16T00:22:10;8.68;;;3.60;;
78783;SDS011;68127;51.050;14.084;2023-07-16T00:24:36;6.63;;;3.25;;
78783;SDS011;68127;51.050;14.084;2023-07-16T00:27:01;6.25;;;3.30;;
78783;SDS011;68127;51.050;14.084;2023-07-16T00:29:27;7.90;;;3.13;;
78783;SDS011;68127;51.050;14.084;2023-07-16T00:31:52;7.63;;;3.30;;
78783;SDS011;68127;51.050;14.084;2023-07-16T00:34:17;6.63;;;3.28;;
78783;SDS011;68127;51.050;14.084;2023-07-16T00:36:42;6.95;;;3.17;;
78783;SDS011;68127;51.050;14.084;2023-07-16T00:39:08;10.77;;;3.30;;
78783;SDS011;68127;51.050;14.084;2023-07-16T00:41:35;6.50;;;3.20;;
78783;SDS011;68127;51.050;14.084;2023-07-16T00:44:00;8.68;;;3.38;;
78783;SDS011;68127;51.050;14.084;2023-07-16T00:46:25;8.77;;;3.80;;
78783;SDS011;68127;51.050;14.084;2023-07-16T00:48:50;7.35;;;3.58;;
78783;SDS011;68127;51.050;14.084;2023-07-16T00:51:16;6.07;;;3.25;;
78783;SDS011;68127;51.050;14.084;2023-07-16T00:53:42;8.20;;;3.47;;
78783;SDS011;68127;51.050;14.084;2023-07-16T00:56:08;10.02;;;3.83;;
78783;SDS011;68127;51.050;14.084;2023-07-16T00:58:34;11.02;;;3.47;;
78783;SDS011;68127;51.050;14.084;2023-07-16T01:01:00;5.68;;;3.38;;
78783;SDS011;68127;51.050;14.084;2023-07-16T01:03:25;5.65;;;3.28;;
78783;SDS011;68127;51.050;14.084;2023-07-16T01:11:12;8.13;;;3.67;;
78783;SDS011;68127;51.050;14.084;2023-07-16T01:13:38;7.35;;;3.45;;
78783;SDS011;68127;51.050;14.084;2023-07-16T01:16:04;5.38;;;3.33;;
78783;SDS011;68127;51.050;14.084;2023-07-16T01:18:30;7.93;;;2.95;;
78783;SDS011;68127;51.050;14.084;2023-07-16T01:20:55;6.28;;;3.60;;
78783;SDS011;68127;51.050;14.084;2023-07-16T01:23:31;6.30;;;3.20;;
78783;SDS011;68127;51.050;14.084;2023-07-16T01:31:41;5.28;;;3.20;;
78783;SDS011;68127;51.050;14.084;2023-07-16T01:34:07;5.22;;;3.03;;
78783;SDS011;68127;51.050;14.084;2023-07-16T01:36:33;8.43;;;3.10;;
78783;SDS011;68127;51.050;14.084;2023-07-16T01:38:59;8.65;;;3.05;;
78783;SDS011;68127;51.050;14.084;2023-07-16T01:41:25;4.72;;;2.90;;
78783;SDS011;68127;51.050;14.084;2023-07-16T01:43:51;6.18;;;2.92;;
78783;SDS011;68127;51.050;14.084;2023-07-16T01:46:16;6.18;;;2.85;;
78783;SDS011;68127;51.050;14.084;2023-07-16T01:48:42;4.60;;;2.67;;
78783;SDS011;68127;51.050;14.084;2023-07-16T01:51:08;4.10;;;2.33;;
78783;SDS011;68127;51.050;14.084;2023-07-16T01:53:33;4.78;;;2.80;;
78783;SDS011;68127;51.050;14.084;2023-07-16T01:56:00;5.00;;;2.67;;
78783;SDS011;68127;51.050;14.084;2023-07-16T01:58:26;4.38;;;2.55;;
78783;SDS011;68127;51.050;14.084;2023-07-16T02:00:51;4.88;;;2.67;;
78783;SDS011;68127;51.050;14.084;2023-07-16T02:03:16;4.00;;;2.28;;
78783;SDS011;68127;51.050;14.084;2023-07-16T02:05:42;5.15;;;2.30;;
78783;SDS011;68127;51.050;14.084;2023-07-16T02:08:07;4.13;;;2.50;;
78783;SDS011;68127;51.050;14.084;2023-07-16T02:10:32;3.80;;;2.10;;
78783;SDS011;68127;51.050;14.084;2023-07-16T02:12:57;4.40;;;2.30;;
78783;SDS011;68127;51.050;14.084;2023-07-16T02:15:23;6.47;;;2.42;;
78783;SDS011;68127;51.050;14.084;2023-07-16T02:17:48;5.18;;;2.33;;
78783;SDS011;68127;51.050;14.084;2023-07-16T02:20:13;4.65;;;2.20;;
78783;SDS011;68127;51.050;14.084;2023-07-16T02:22:39;4.95;;;2.65;;
78783;SDS011;68127;51.050;14.084;2023-07-16T02:25:04;6.13;;;2.10;;
78783;SDS011;68127;51.050;14.084;2023-07-16T02:27:30;6.35;;;2.20;;
78783;SDS011;68127;51.050;14.084;2023-07-16T02:29:55;4.47;;;2.33;;
78783;SDS011;68127;51.050;14.084;2023-07-16T02:32:20;4.40;;;2.10;;
78783;SDS011;68127;51.050;14.084;2023-07-16T02:34:46;5.10;;;2.03;;
78783;SDS011;68127;51.050;14.084;2023-07-16T02:37:11;4.72;;;2.20;;
78783;SDS011;68127;51.050;14.084;2023-07-16T02:39:38;3.58;;;2.00;;
78783;SDS011;68127;51.050;14.084;2023-07-16T02:42:03;3.58;;;2.10;;
78783;SDS011;68127;51.050;14.084;2023-07-16T02:44:29;4.45;;;2.17;;
78783;SDS011;68127;51.050;14.084;2023-07-16T02:46:54;4.28;;;2.20;;
78783;SDS011;68127;51.050;14.084;2023-07-16T02:49:20;3.92;;;2.20;;
78783;SDS011;68127;51.050;14.084;2023-07-16T02:51:45;4.18;;;2.10;;
78783;SDS011;68127;51.050;14.084;2023-07-16T02:54:10;5.40;;;2.08;;
78783;SDS011;68127;51.050;14.084;2023-07-16T02:56:36;7.78;;;2.10;;
78783;SDS011;68127;51.050;14.084;2023-07-16T02:59:01;4.05;;;1.70;;
78783;SDS011;68127;51.050;14.084;2023-07-16T03:01:26;5.00;;;1.98;;
78783;SDS011;68127;51.050;14.084;2023-07-16T03:03:51;3.67;;;1.85;;
78783;SDS011;68127;51.050;14.084;2023-07-16T03:06:17;5.00;;;2.10;;
78783;SDS011;68127;51.050;14.084;2023-07-16T03:08:42;4.35;;;2.00;;
78783;SDS011;68127;51.050;14.084;2023-07-16T03:11:07;4.85;;;2.10;;
78783;SDS011;68127;51.050;14.084;2023-07-16T03:13:33;3.45;;;1.77;;
78783;SDS011;68127;51.050;14.084;2023-07-16T03:15:58;3.90;;;1.70;;
78783;SDS011;68127;51.050;14.084;2023-07-16T03:18:27;4.13;;;2.00;;
78783;SDS011;68127;51.050;14.084;2023-07-16T03:20:53;5.53;;;2.10;;
78783;SDS011;68127;51.050;14.084;2023-07-16T03:23:18;4.55;;;2.08;;
78783;SDS011;68127;51.050;14.084;2023-07-16T03:25:44;3.67;;;2.05;;
78783;SDS011;68127;51.050;14.084;2023-07-16T03:28:09;4.78;;;1.83;;
78783;SDS011;68127;51.050;14.084;2023-07-16T03:30:35;4.15;;;2.15;;
78783;SDS011;68127;51.050;14.084;2023-07-16T03:33:02;4.28;;;1.90;;
78783;SDS011;68127;51.050;14.084;2023-07-16T03:35:27;3.92;;;1.92;;
78783;SDS011;68127;51.050;14.084;2023-07-16T03:37:52;4.40;;;2.28;;
78783;SDS011;68127;51.050;14.084;2023-07-16T03:40:24;3.90;;;1.90;;
78783;SDS011;68127;51.050;14.084;2023-07-16T03:42:50;6.07;;;2.08;;
78783;SDS011;68127;51.050;14.084;2023-07-16T03:45:15;3.90;;;2.15;;
78783;SDS011;68127;51.050;14.084;2023-07-16T03:47:40;4.07;;;2.00;;
78783;SDS011;68127;51.050;14.084;2023-07-16T03:50:06;4.20;;;2.00;;
78783;SDS011;68127;51.050;14.084;2023-07-16T03:52:32;4.20;;;1.88;;
78783;SDS011;68127;51.050;14.084;2023-07-16T03:54:57;3.85;;;2.00;;
78783;SDS011;68127;51.050;14.084;2023-07-16T03:57:22;3.40;;;1.90;;
78783;SDS011;68127;51.050;14.084;2023-07-16T03:59:48;4.57;;;2.20;;
78783;SDS011;68127;51.050;14.084;2023-07-16T04:02:13;5.32;;;2.10;;
78783;SDS011;68127;51.050;14.084;2023-07-16T04:04:38;4.25;;;2.00;;
78783;SDS011;68127;51.050;14.084;2023-07-16T04:07:03;3.53;;;1.98;;
78783;SDS011;68127;51.050;14.084;2023-07-16T04:09:29;6.45;;;2.40;;
78783;SDS011;68127;51.050;14.084;2023-07-16T04:11:54;4.03;;;2.20;;
78783;SDS011;68127;51.050;14.084;2023-07-16T04:14:19;4.25;;;2.30;;
78783;SDS011;68127;51.050;14.084;2023-07-16T04:16:45;4.20;;;2.28;;
78783;SDS011;68127;51.050;14.084;2023-07-16T04:19:10;4.80;;;2.17;;
78783;SDS011;68127;51.050;14.084;2023-07-16T04:21:35;7.00;;;2.33;;
78783;SDS011;68127;51.050;14.084;2023-07-16T04:24:04;3.97;;;2.30;;
78783;SDS011;68127;51.050;14.084;2023-07-16T04:26:30;5.10;;;2.55;;
78783;SDS011;68127;51.050;14.084;2023-07-16T04:28:56;5.85;;;2.53;;
78783;SDS011;68127;51.050;14.084;2023-07-16T04:31:22;4.35;;;2.30;;
78783;SDS011;68127;51.050;14.084;2023-07-16T04:33:47;5.43;;;2.50;;
78783;SDS011;68127;51.050;14.084;2023-07-16T04:36:13;5.72;;;2.40;;
78783;SDS011;68127;51.050;14.084;2023-07-16T04:38:38;4.10;;;2.40;;
78783;SDS011;68127;51.050;14.084;2023-07-16T04:41:03;4.55;;;2.42;;
78783;SDS011;68127;51.050;14.084;2023-07-16T04:43:28;5.50;;;2.50;;
78783;SDS011;68127;51.050;14.084;2023-07-16T04:45:54;5.80;;;2.60;;
78783;SDS011;68127;51.050;14.084;2023-07-16T04:48:19;4.22;;;2.47;;
78783;SDS011;68127;51.050;14.084;2023-07-16T04:50:44;4.43;;;2.22;;
78783;SDS011;68127;51.050;14.084;2023-07-16T04:53:10;4.18;;;2.33;;
78783;SDS011;68127;51.050;14.084;2023-07-16T04:55:36;4.00;;;2.20;;
78783;SDS011;68127;51.050;14.084;2023-07-16T04:58:02;4.80;;;2.60;;
78783;SDS011;68127;51.050;14.084;2023-07-16T05:00:27;4.10;;;2.40;;
78783;SDS011;68127;51.050;14.084;2023-07-16T05:02:52;4.00;;;2.30;;
78783;SDS011;68127;51.050;14.084;2023-07-16T05:05:17;4.93;;;2.20;;
78783;SDS011;68127;51.050;14.084;2023-07-16T05:07:43;4.95;;;2.50;;
78783;SDS011;68127;51.050;14.084;2023-07-16T05:10:08;5.10;;;2.33;;
78783;SDS011;68127;51.050;14.084;2023-07-16T05:12:34;8.02;;;2.40;;
78783;SDS011;68127;51.050;14.084;2023-07-16T05:14:59;4.78;;;2.50;;
78783;SDS011;68127;51.050;14.084;2023-07-16T05:17:24;5.18;;;2.50;;
78783;SDS011;68127;51.050;14.084;2023-07-16T05:19:50;4.50;;;2.58;;
78783;SDS011;68127;51.050;14.084;2023-07-16T05:22:15;4.30;;;2.40;;
78783;SDS011;68127;51.050;14.084;2023-07-16T05:24:40;4.40;;;2.47;;
78783;SDS011;68127;51.050;14.084;2023-07-16T05:27:06;3.90;;;2.25;;
78783;SDS011;68127;51.050;14.084;2023-07-16T05:29:31;3.38;;;2.00;;
78783;SDS011;68127;51.050;14.084;2023-07-16T05:31:56;4.55;;;2.20;;
78783;SDS011;68127;51.050;14.084;2023-07-16T05:34:22;3.38;;;2.00;;
78783;SDS011;68127;51.050;14.084;2023-07-16T05:36:47;4.07;;;2.30;;
78783;SDS011;68127;51.050;14.084;2023-07-16T05:39:12;4.03;;;2.30;;
78783;SDS011;68127;51.050;14.084;2023-07-16T05:41:41;4.72;;;2.33;;
78783;SDS011;68127;51.050;14.084;2023-07-16T05:44:06;3.83;;;2.20;;
78783;SDS011;68127;51.050;14.084;2023-07-16T05:46:33;4.38;;;2.17;;
78783;SDS011;68127;51.050;14.084;2023-07-16T05:48:58;3.58;;;2.10;;
78783;SDS011;68127;51.050;14.084;2023-07-16T05:51:23;4.40;;;2.35;;
78783;SDS011;68127;51.050;14.084;2023-07-16T05:53:49;4.05;;;2.33;;
78783;SDS011;68127;51.050;14.084;2023-07-16T05:56:14;4.72;;;2.20;;
78783;SDS011;68127;51.050;14.084;2023-07-16T05:58:40;4.47;;;2.05;;
78783;SDS011;68127;51.050;14.084;2023-07-16T06:01:06;5.47;;;2.22;;
78783;SDS011;68127;51.050;14.084;2023-07-16T06:03:31;4.32;;;2.28;;
78783;SDS011;68127;51.050;14.084;2023-07-16T06:05:56;4.63;;;2.40;;
78783;SDS011;68127;51.050;14.084;2023-07-16T06:08:21;5.35;;;2.40;;
78783;SDS011;68127;51.050;14.084;2023-07-16T06:10:47;5.25;;;2.38;;
78783;SDS011;68127;51.050;14.084;2023-07-16T06:13:12;5.80;;;2.45;;
78783;SDS011;68127;51.050;14.084;2023-07-16T06:15:38;4.32;;;2.20;;
78783;SDS011;68127;51.050;14.084;2023-07-16T06:18:03;4.25;;;2.13;;
78783;SDS011;68127;51.050;14.084;2023-07-16T06:20:28;4.30;;;2.50;;
78783;SDS011;68127;51.050;14.084;2023-07-16T06:22:54;4.50;;;2.28;;
78783;SDS011;68127;51.050;14.084;2023-07-16T06:25:19;3.33;;;2.03;;
78783;SDS011;68127;51.050;14.084;2023-07-16T06:27:44;4.47;;;2.65;;
78783;SDS011;68127;51.050;14.084;2023-07-16T06:30:10;5.53;;;2.70;;
78783;SDS011;68127;51.050;14.084;2023-07-16T06:32:35;5.15;;;2.30;;
78783;SDS011;68127;51.050;14.084;2023-07-16T06:35:00;4.05;;;2.30;;
78783;SDS011;68127;51.050;14.084;2023-07-16T06:37:26;6.72;;;2.60;;
78783;SDS011;68127;51.050;14.084;2023-07-16T06:39:51;5.18;;;2.30;;
78783;SDS011;68127;51.050;14.084;2023-07-16T06:42:16;4.40;;;2.58;;
78783;SDS011;68127;51.050;14.084;2023-07-16T06:44:41;3.75;;;2.30;;
78783;SDS011;68127;51.050;14.084;2023-07-16T06:47:07;4.88;;;2.53;;
78783;SDS011;68127;51.050;14.084;2023-07-16T06:49:32;4.20;;;2.30;;
78783;SDS011;68127;51.050;14.084;2023-07-16T06:51:59;3.80;;;2.15;;
78783;SDS011;68127;51.050;14.084;2023-07-16T06:54:25;4.32;;;2.30;;
78783;SDS011;68127;51.050;14.084;2023-07-16T06:56:51;3.88;;;2.15;;
78783;SDS011;68127;51.050;14.084;2023-07-16T06:59:16;3.25;;;2.13;;
78783;SDS011;68127;51.050;14.084;2023-07-16T07:01:42;4.47;;;2.30;;
78783;SDS011;68127;51.050;14.084;2023-07-16T07:04:07;4.13;;;1.95;;
78783;SDS011;68127;51.050;14.084;2023-07-16T07:06:32;4.22;;;2.30;;
78783;SDS011;68127;51.050;14.084;2023-07-16T07:08:57;5.05;;;2.30;;
78783;SDS011;68127;51.050;14.084;2023-07-16T07:11:23;5.10;;;2.25;;
78783;SDS011;68127;51.050;14.084;2023-07-16T07:13:48;5.55;;;2.00;;
78783;SDS011;68127;51.050;14.084;2023-07-16T07:16:15;4.95;;;2.50;;
78783;SDS011;68127;51.050;14.084;2023-07-16T07:18:40;3.53;;;2.10;;
78783;SDS011;68127;51.050;14.084;2023-07-16T07:21:05;3.85;;;2.05;;
78783;SDS011;68127;51.050;14.084;2023-07-16T07:23:31;3.08;;;1.90;;
78783;SDS011;68127;51.050;14.084;2023-07-16T07:25:56;4.85;;;2.20;;
78783;SDS011;68127;51.050;14.084;2023-07-16T07:28:21;3.75;;;2.10;;
78783;SDS011;68127;51.050;14.084;2023-07-16T07:30:47;4.07;;;2.28;;
78783;SDS011;68127;51.050;14.084;2023-07-16T07:33:12;4.50;;;2.33;;
78783;SDS011;68127;51.050;14.084;2023-07-16T07:38:54;4.07;;;2.17;;
78783;SDS011;68127;51.050;14.084;2023-07-16T07:41:19;4.03;;;2.10;;
78783;SDS011;68127;51.050;14.084;2023-07-16T07:43:44;4.22;;;2.63;;
78783;SDS011;68127;51.050;14.084;2023-07-16T07:46:10;4.45;;;2.20;;
78783;SDS011;68127;51.050;14.084;2023-07-16T07:48:35;4.95;;;2.30;;
78783;SDS011;68127;51.050;14.084;2023-07-16T07:51:00;3.97;;;2.10;;
78783;SDS011;68127;51.050;14.084;2023-07-16T07:53:26;4.15;;;2.28;;
78783;SDS011;68127;51.050;14.084;2023-07-16T07:55:51;5.53;;;2.15;;
78783;SDS011;68127;51.050;14.084;2023-07-16T07:58:16;3.65;;;2.30;;
78783;SDS011;68127;51.050;14.084;2023-07-16T08:00:42;3.20;;;1.90;;
78783;SDS011;68127;51.050;14.084;2023-07-16T08:03:07;4.07;;;2.30;;
78783;SDS011;68127;51.050;14.084;2023-07-16T08:05:32;4.82;;;2.13;;
78783;SDS011;68127;51.050;14.084;2023-07-16T08:07:58;4.40;;;2.20;;
78783;SDS011;68127;51.050;14.084;2023-07-16T08:10:24;3.45;;;2.00;;
78783;SDS011;68127;51.050;14.084;2023-07-16T08:12:49;3.45;;;2.08;;
78783;SDS011;68127;51.050;14.084;2023-07-16T08:15:14;4.60;;;2.20;;
78783;SDS011;68127;51.050;14.084;2023-07-16T08:17:43;3.90;;;1.98;;
78783;SDS011;68127;51.050;14.084;2023-07-16T08:20:09;3.78;;;1.92;;
78783;SDS011;68127;51.050;14.084;2023-07-16T08:22:35;3.40;;;1.95;;
78783;SDS011;68127;51.050;14.084;2023-07-16T08:25:00;4.45;;;2.17;;
78783;SDS011;68127;51.050;14.084;2023-07-16T08:27:25;4.82;;;2.08;;
78783;SDS011;68127;51.050;14.084;2023-07-16T08:29:51;4.40;;;2.08;;
78783;SDS011;68127;51.050;14.084;2023-07-16T08:32:16;4.18;;;1.98;;
78783;SDS011;68127;51.050;14.084;2023-07-16T08:34:41;5.05;;;1.90;;
78783;SDS011;68127;51.050;14.084;2023-07-16T08:37:10;3.85;;;1.98;;
78783;SDS011;68127;51.050;14.084;2023-07-16T08:39:35;6.00;;;1.90;;
78783;SDS011;68127;51.050;14.084;2023-07-16T08:42:00;6.38;;;2.10;;
78783;SDS011;68127;51.050;14.084;2023-07-16T08:44:26;5.40;;;2.00;;
78783;SDS011;68127;51.050;14.084;2023-07-16T08:46:51;4.15;;;2.10;;
78783;SDS011;68127;51.050;14.084;2023-07-16T08:49:17;4.65;;;2.08;;
78783;SDS011;68127;51.050;14.084;2023-07-16T08:51:43;4.20;;;2.17;;
78783;SDS011;68127;51.050;14.084;2023-07-16T08:54:11;4.53;;;2.17;;
78783;SDS011;68127;51.050;14.084;2023-07-16T08:56:36;4.40;;;2.13;;
78783;SDS011;68127;51.050;14.084;2023-07-16T08:59:01;5.38;;;2.08;;
78783;SDS011;68127;51.050;14.084;2023-07-16T09:01:27;4.65;;;2.20;;
78783;SDS011;68127;51.050;14.084;2023-07-16T09:03:52;3.60;;;2.00;;
78783;SDS011;68127;51.050;14.084;2023-07-16T09:06:18;6.20;;;2.25;;
78783;SDS011;68127;51.050;14.084;2023-07-16T09:08:43;4.43;;;2.15;;
78783;SDS011;68127;51.050;14.084;2023-07-16T09:11:12;7.53;;;2.33;;
78783;SDS011;68127;51.050;14.084;2023-07-16T09:13:43;3.78;;;2.08;;
78783;SDS011;68127;51.050;14.084;2023-07-16T09:16:08;3.60;;;2.10;;
78783;SDS011;68127;51.050;14.084;2023-07-16T09:18:34;4.18;;;2.00;;
78783;SDS011;68127;51.050;14.084;2023-07-16T09:20:59;5.32;;;2.25;;
78783;SDS011;68127;51.050;14.084;2023-07-16T09:23:29;4.13;;;2.35;;
78783;SDS011;68127;51.050;14.084;2023-07-16T09:25:55;4.05;;;2.22;;
78783;SDS011;68127;51.050;14.084;2023-07-16T09:28:20;3.95;;;2.00;;
78783;SDS011;68127;51.050;14.084;2023-07-16T09:30:46;4.82;;;2.40;;
78783;SDS011;68127;51.050;14.084;2023-07-16T09:33:16;5.15;;;2.45;;
78783;SDS011;68127;51.050;14.084;2023-07-16T09:35:42;4.68;;;2.42;;
78783;SDS011;68127;51.050;14.084;2023-07-16T09:38:08;4.25;;;2.10;;
78783;SDS011;68127;51.050;14.084;2023-07-16T09:40:37;5.53;;;2.60;;
78783;SDS011;68127;51.050;14.084;2023-07-16T09:43:03;4.50;;;2.20;;
78783;SDS011;68127;51.050;14.084;2023-07-16T09:45:29;4.53;;;2.00;;
78783;SDS011;68127;51.050;14.084;2023-07-16T09:47:55;4.72;;;2.45;;
78783;SDS011;68127;51.050;14.084;2023-07-16T09:50:24;4.63;;;2.50;;
78783;SDS011;68127;51.050;14.084;2023-07-16T09:52:50;4.90;;;2.22;;
78783;SDS011;68127;51.050;14.084;2023-07-16T09:55:16;4.63;;;2.25;;
78783;SDS011;68127;51.050;14.084;2023-07-16T09:57:42;5.20;;;2.25;;
78783;SDS011;68127;51.050;14.084;2023-07-16T10:00:11;4.30;;;2.30;;
78783;SDS011;68127;51.050;14.084;2023-07-16T10:02:39;4.82;;;2.10;;
78783;SDS011;68127;51.050;14.084;2023-07-16T10:05:18;4.32;;;2.10;;
78783;SDS011;68127;51.050;14.084;2023-07-16T10:07:52;4.90;;;2.53;;
78783;SDS011;68127;51.050;14.084;2023-07-16T10:10:25;4.45;;;2.10;;
78783;SDS011;68127;51.050;14.084;2023-07-16T10:13:00;4.13;;;2.30;;
78783;SDS011;68127;51.050;14.084;2023-07-16T10:15:27;5.40;;;2.30;;
78783;SDS011;68127;51.050;14.084;2023-07-16T10:17:56;4.28;;;2.50;;
78783;SDS011;68127;51.050;14.084;2023-07-16T10:20:35;5.22;;;2.35;;
78783;SDS011;68127;51.050;14.084;2023-07-16T10:23:11;5.88;;;2.40;;
78783;SDS011;68127;51.050;14.084;2023-07-16T10:25:38;6.20;;;2.40;;
78783;SDS011;68127;51.050;14.084;2023-07-16T10:28:10;6.45;;;2.47;;
78783;SDS011;68127;51.050;14.084;2023-07-16T10:30:36;4.15;;;2.13;;
78783;SDS011;68127;51.050;14.084;2023-07-16T10:33:11;7.82;;;2.30;;
78783;SDS011;68127;51.050;14.084;2023-07-16T10:35:40;7.22;;;2.42;;
78783;SDS011;68127;51.050;14.084;2023-07-16T10:38:06;6.53;;;2.10;;
78783;SDS011;68127;51.050;14.084;2023-07-16T10:40:39;4.82;;;2.00;;
78783;SDS011;68127;51.050;14.084;2023-07-16T10:43:08;5.90;;;2.20;;
78783;SDS011;68127;51.050;14.084;2023-07-16T10:45:36;3.78;;;2.20;;
78783;SDS011;68127;51.050;14.084;2023-07-16T10:48:02;3.75;;;2.10;;
78783;SDS011;68127;51.050;14.084;2023-07-16T10:50:27;6.13;;;2.17;;
78783;SDS011;68127;51.050;14.084;2023-07-16T10:52:53;4.88;;;2.10;;
78783;SDS011;68127;51.050;14.084;2023-07-16T10:55:19;4.45;;;2.25;;
78783;SDS011;68127;51.050;14.084;2023-07-16T10:57:46;5.63;;;2.20;;
78783;SDS011;68127;51.050;14.084;2023-07-16T11:00:13;5.75;;;2.35;;
78783;SDS011;68127;51.050;14.084;2023-07-16T11:02:41;6.75;;;2.00;;
78783;SDS011;68127;51.050;14.084;2023-07-16T11:05:11;4.55;;;2.05;;
78783;SDS011;68127;51.050;14.084;2023-07-16T11:07:37;4.57;;;2.05;;
78783;SDS011;68127;51.050;14.084;2023-07-16T11:10:02;3.80;;;1.83;;
78783;SDS011;68127;51.050;14.084;2023-07-16T11:12:28;4.90;;;2.30;;
78783;SDS011;68127;51.050;14.084;2023-07-16T11:14:54;5.10;;;2.30;;
78783;SDS011;68127;51.050;14.084;2023-07-16T11:17:21;5.40;;;2.20;;
78783;SDS011;68127;51.050;14.084;2023-07-16T11:19:48;5.05;;;2.30;;
78783;SDS011;68127;51.050;14.084;2023-07-16T11:22:14;4.60;;;2.20;;
78783;SDS011;68127;51.050;14.084;2023-07-16T11:24:40;5.35;;;2.20;;
78783;SDS011;68127;51.050;14.084;2023-07-16T11:29:38;4.60;;;2.35;;
78783;SDS011;68127;51.050;14.084;2023-07-16T11:32:04;5.70;;;2.15;;
78783;SDS011;68127;51.050;14.084;2023-07-16T11:34:30;4.50;;;2.30;;
78783;SDS011;68127;51.050;14.084;2023-07-16T11:36:55;6.32;;;2.25;;
78783;SDS011;68127;51.050;14.084;2023-07-16T11:39:32;4.30;;;2.10;;
78783;SDS011;68127;51.050;14.084;2023-07-16T11:41:57;5.18;;;2.03;;
78783;SDS011;68127;51.050;14.084;2023-07-16T11:44:22;6.78;;;2.00;;
78783;SDS011;68127;51.050;14.084;2023-07-16T11:46:47;7.55;;;2.20;;
78783;SDS011;68127;51.050;14.084;2023-07-16T11:49:13;5.82;;;2.30;;
78783;SDS011;68127;51.050;14.084;2023-07-16T11:51:38;4.20;;;2.20;;
78783;SDS011;68127;51.050;14.084;2023-07-16T11:54:03;6.00;;;2.20;;
78783;SDS011;68127;51.050;14.084;2023-07-16T11:56:29;4.75;;;2.20;;
78783;SDS011;68127;51.050;14.084;2023-07-16T11:58:54;5.07;;;2.08;;
78783;SDS011;68127;51.050;14.084;2023-07-16T12:01:19;6.28;;;2.33;;
78783;SDS011;68127;51.050;14.084;2023-07-16T12:03:45;5.60;;;2.30;;
78783;SDS011;68127;51.050;14.084;2023-07-16T12:06:10;3.95;;;2.28;;
78783;SDS011;68127;51.050;14.084;2023-07-16T12:08:35;4.88;;;2.10;;
78783;SDS011;68127;51.050;14.084;2023-07-16T12:11:00;5.13;;;2.08;;
78783;SDS011;68127;51.050;14.084;2023-07-16T12:13:26;5.53;;;2.15;;
78783;SDS011;68127;51.050;14.084;2023-07-16T12:15:51;4.07;;;1.90;;
78783;SDS011;68127;51.050;14.084;2023-07-16T12:18:16;3.80;;;2.15;;
78783;SDS011;68127;51.050;14.084;2023-07-16T12:20:41;5.68;;;2.10;;
78783;SDS011;68127;51.050;14.084;2023-07-16T12:23:07;5.97;;;2.20;;
78783;SDS011;68127;51.050;14.084;2023-07-16T12:25:32;5.82;;;2.25;;
78783;SDS011;68127;51.050;14.084;2023-07-16T12:27:58;5.32;;;2.30;;
78783;SDS011;68127;51.050;14.084;2023-07-16T12:30:25;4.35;;;2.25;;
78783;SDS011;68127;51.050;14.084;2023-07-16T12:32:50;4.35;;;2.10;;
78783;SDS011;68127;51.050;14.084;2023-07-16T12:35:16;4.20;;;2.25;;
78783;SDS011;68127;51.050;14.084;2023-07-16T12:37:41;3.75;;;2.25;;
78783;SDS011;68127;51.050;14.084;2023-07-16T12:40:07;4.60;;;2.25;;
78783;SDS011;68127;51.050;14.084;2023-07-16T12:42:32;4.57;;;2.20;;
78783;SDS011;68127;51.050;14.084;2023-07-16T12:44:58;5.68;;;2.20;;
78783;SDS011;68127;51.050;14.084;2023-07-16T12:47:23;4.78;;;2.20;;
78783;SDS011;68127;51.050;14.084;2023-07-16T12:49:48;6.88;;;2.30;;
78783;SDS011;68127;51.050;14.084;2023-07-16T12:52:14;4.45;;;2.08;;
78783;SDS011;68127;51.050;14.084;2023-07-16T12:54:39;5.32;;;2.30;;
78783;SDS011;68127;51.050;14.084;2023-07-16T12:57:04;4.35;;;2.13;;
78783;SDS011;68127;51.050;14.084;2023-07-16T12:59:30;3.63;;;1.90;;
78783;SDS011;68127;51.050;14.084;2023-07-16T13:01:55;5.53;;;2.40;;
78783;SDS011;68127;51.050;14.084;2023-07-16T13:04:20;4.32;;;2.30;;
78783;SDS011;68127;51.050;14.084;2023-07-16T13:06:46;3.78;;;1.92;;
78783;SDS011;68127;51.050;14.084;2023-07-16T13:09:13;4.68;;;2.45;;
78783;SDS011;68127;51.050;14.084;2023-07-16T13:11:39;4.03;;;2.20;;
78783;SDS011;68127;51.050;14.084;2023-07-16T13:14:04;5.07;;;2.15;;
78783;SDS011;68127;51.050;14.084;2023-07-16T13:16:29;5.57;;;2.42;;
78783;SDS011;68127;51.050;14.084;2023-07-16T13:18:54;5.40;;;2.55;;
78783;SDS011;68127;51.050;14.084;2023-07-16T13:21:20;4.32;;;2.10;;
78783;SDS011;68127;51.050;14.084;2023-07-16T13:23:45;5.18;;;2.17;;
78783;SDS011;68127;51.050;14.084;2023-07-16T13:26:10;4.00;;;2.00;;
78783;SDS011;68127;51.050;14.084;2023-07-16T13:28:36;5.80;;;2.35;;
78783;SDS011;68127;51.050;14.084;2023-07-16T13:31:01;4.85;;;2.10;;
78783;SDS011;68127;51.050;14.084;2023-07-16T13:33:26;5.40;;;2.30;;
78783;SDS011;68127;51.050;14.084;2023-07-16T13:35:52;5.70;;;2.60;;
78783;SDS011;68127;51.050;14.084;2023-07-16T13:38:17;6.32;;;2.35;;
78783;SDS011;68127;51.050;14.084;2023-07-16T13:40:42;7.63;;;2.88;;
78783;SDS011;68127;51.050;14.084;2023-07-16T13:43:07;3.88;;;2.22;;
78783;SDS011;68127;51.050;14.084;2023-07-16T13:45:33;6.25;;;2.30;;
78783;SDS011;68127;51.050;14.084;2023-07-16T13:47:59;4.95;;;2.30;;
78783;SDS011;68127;51.050;14.084;2023-07-16T13:50:24;5.05;;;2.30;;
78783;SDS011;68127;51.050;14.084;2023-07-16T13:52:49;4.65;;;2.00;;
78783;SDS011;68127;51.050;14.084;2023-07-16T13:55:14;4.88;;;2.30;;
78783;SDS011;68127;51.050;14.084;2023-07-16T13:57:40;5.10;;;2.50;;
78783;SDS011;68127;51.050;14.084;2023-07-16T14:00:06;4.70;;;2.35;;
78783;SDS011;68127;51.050;14.084;2023-07-16T14:02:34;5.18;;;2.50;;
78783;SDS011;68127;51.050;14.084;2023-07-16T14:04:59;4.65;;;2.30;;
78783;SDS011;68127;51.050;14.084;2023-07-16T14:07:25;5.55;;;2.47;;
78783;SDS011;68127;51.050;14.084;2023-07-16T14:09:50;4.90;;;2.30;;
78783;SDS011;68127;51.050;14.084;2023-07-16T14:12:15;5.88;;;2.40;;
78783;SDS011;68127;51.050;14.084;2023-07-16T14:14:40;4.45;;;2.20;;
78783;SDS011;68127;51.050;14.084;2023-07-16T14:17:06;5.85;;;2.30;;
78783;SDS011;68127;51.050;14.084;2023-07-16T14:19:31;4.80;;;2.20;;
78783;SDS011;68127;51.050;14.084;2023-07-16T14:21:56;5.07;;;2.25;;
78783;SDS011;68127;51.050;14.084;2023-07-16T14:24:22;4.38;;;2.63;;
78783;SDS011;68127;51.050;14.084;2023-07-16T14:26:47;5.68;;;2.30;;
78783;SDS011;68127;51.050;14.084;2023-07-16T14:29:13;6.95;;;2.45;;
78783;SDS011;68127;51.050;14.084;2023-07-16T14:31:39;8.15;;;2.42;;
78783;SDS011;68127;51.050;14.084;2023-07-16T14:34:04;3.88;;;2.20;;
78783;SDS011;68127;51.050;14.084;2023-07-16T14:36:29;4.13;;;2.20;;
78783;SDS011;68127;51.050;14.084;2023-07-16T14:38:55;5.05;;;2.40;;
78783;SDS011;68127;51.050;14.084;2023-07-16T14:41:20;5.53;;;2.33;;